createdAt,value
2019-02-22T00:02:31.209Z,67.53
2019-02-22T00:06:39.459Z,72.90
2019-02-22T00:10:47.711Z,72.37
2019-02-22T00:14:55.969Z,79.97
2019-02-22T00:19:04.240Z,68.73
2019-02-22T00:23:12.223Z,77.83
2019-02-22T00:27:20.489Z,75.63
2019-02-22T00:31:29.364Z,72.92
2019-02-22T00:35:37.606Z,77.57
2019-02-22T00:39:45.802Z,70.20
2019-02-22T00:43:54.091Z,68.50
2019-02-22T00:48:02.353Z,72.78
2019-02-22T00:52:10.590Z,72.23
2019-02-22T00:56:18.788Z,69.80
2019-02-22T01:00:27.047Z,66.47
2019-02-22T01:04:35.276Z,63.77
2019-02-22T01:08:43.533Z,63.57
2019-02-22T01:12:51.741Z,62.97
2019-02-22T01:16:59.978Z,63.87
2019-02-22T01:21:08.217Z,74.57
2019-02-22T01:25:16.496Z,70.50
2019-02-22T01:29:24.748Z,70.67
2019-02-22T01:33:33.006Z,75.47
2019-02-22T01:37:41.265Z,72.13
2019-02-22T01:41:49.497Z,76.27
2019-02-22T01:45:57.696Z,76.87
2019-02-22T01:50:05.977Z,83.97
2019-02-22T01:54:14.215Z,73.73
2019-02-22T01:58:22.500Z,91.40
2019-02-22T02:02:30.724Z,83.60
2019-02-22T02:06:38.974Z,79.30
2019-02-22T02:10:54.054Z,73.57
2019-02-22T02:14:55.491Z,79.17
2019-02-22T02:19:03.737Z,84.83
2019-02-22T02:23:11.999Z,93.07
2019-02-22T02:27:20.297Z,84.07
2019-02-22T02:31:28.581Z,90.27
2019-02-22T02:35:36.804Z,91.73
2019-02-22T02:39:45.053Z,93.53
2019-02-22T02:43:53.323Z,89.20
2019-02-22T02:48:01.555Z,90.73
2019-02-22T02:52:09.801Z,86.10
2019-02-22T02:56:18.024Z,88.60
2019-02-22T03:00:26.275Z,88.53
2019-02-22T03:04:34.523Z,82.30
2019-02-22T03:08:42.751Z,89.27
2019-02-22T03:12:51.003Z,87.20
2019-02-22T03:16:59.250Z,92.90
2019-02-22T03:21:07.494Z,92.77
2019-02-22T03:25:15.763Z,90.73
2019-02-22T03:29:24.011Z,92.77
2019-02-22T03:33:32.269Z,95.07
2019-02-22T03:37:40.493Z,94.87
2019-02-22T03:41:48.759Z,93.33
2019-02-22T03:45:57.010Z,87.93
2019-02-22T03:50:05.329Z,100.53
2019-02-22T03:54:13.574Z,105.53
2019-02-22T03:58:21.860Z,85.53
2019-02-22T04:02:30.070Z,86.27
2019-02-22T04:06:38.319Z,81.30
2019-02-22T04:10:46.563Z,93.70
2019-02-22T04:14:54.830Z,93.03
2019-02-22T04:19:03.106Z,71.97
2019-02-22T04:23:11.365Z,92.30
2019-02-22T04:27:19.646Z,87.83
2019-02-22T04:31:27.896Z,84.87
2019-02-22T04:35:36.162Z,86.47
2019-02-22T04:39:44.447Z,77.60
2019-02-22T04:43:52.690Z,75.60
2019-02-22T04:48:00.961Z,78.87
2019-02-22T04:52:09.256Z,75.87
2019-02-22T04:56:17.548Z,78.57
2019-02-22T05:00:25.809Z,76.77
2019-02-22T05:04:34.034Z,83.17
2019-02-22T05:08:42.298Z,95.57
2019-02-22T05:12:50.522Z,94.67
2019-02-22T05:16:58.810Z,92.27
2019-02-22T05:21:07.036Z,90.07
2019-02-22T05:25:15.319Z,79.73
2019-02-22T05:29:23.609Z,83.82
2019-02-22T05:33:31.846Z,85.97
2019-02-22T05:37:40.113Z,74.90
2019-02-22T05:41:48.383Z,82.33
2019-02-22T05:45:56.655Z,85.50
2019-02-22T05:50:05.086Z,79.30
2019-02-22T05:54:13.414Z,84.37
2019-02-22T05:58:21.654Z,85.23
2019-02-22T06:02:29.922Z,80.00
2019-02-22T06:06:38.130Z,88.73
2019-02-22T06:10:46.376Z,81.07
2019-02-22T06:14:54.687Z,94.53
2019-02-22T06:19:02.942Z,85.77
2019-02-22T06:23:11.214Z,78.33
2019-02-22T06:27:19.511Z,81.83
2019-02-22T06:31:27.729Z,80.00
2019-02-22T06:35:36.010Z,77.57
2019-02-22T06:39:44.275Z,79.80
2019-02-22T06:43:52.516Z,75.03
2019-02-22T06:48:00.830Z,73.93
2019-02-22T06:52:09.081Z,72.20
2019-02-22T06:56:17.335Z,73.07
2019-02-22T07:00:25.617Z,69.00
2019-02-22T07:04:33.873Z,68.47
2019-02-22T07:08:42.121Z,76.00
2019-02-22T07:13:07.621Z,75.37
2019-02-22T07:17:15.910Z,77.57
2019-02-22T07:21:24.196Z,67.60
2019-02-22T07:25:32.455Z,63.40
2019-02-22T07:29:40.739Z,74.30
2019-02-22T07:33:49.010Z,78.73
2019-02-22T07:37:57.303Z,74.60
2019-02-22T07:42:05.580Z,58.97
2019-02-22T07:46:13.838Z,64.58
2019-02-22T07:50:22.105Z,64.70
2019-02-22T07:54:30.334Z,62.83
2019-02-22T07:58:38.593Z,59.42
2019-02-22T08:02:47.051Z,70.40
2019-02-22T08:06:55.091Z,73.73
2019-02-22T08:11:03.369Z,65.87
2019-02-22T08:15:11.588Z,57.50
2019-02-22T08:19:19.838Z,57.90
2019-02-22T08:23:28.111Z,55.73
2019-02-22T08:27:36.385Z,66.43
2019-02-22T08:31:44.691Z,53.90
2019-02-22T08:35:52.960Z,54.17
2019-02-22T08:40:02.352Z,57.87
2019-02-22T08:44:09.511Z,68.37
2019-02-22T08:48:17.787Z,73.67
2019-02-22T08:52:26.097Z,76.97
2019-02-22T08:56:34.429Z,70.03
2019-02-22T09:00:42.687Z,70.97
2019-02-22T09:04:50.950Z,59.73
2019-02-22T09:08:59.236Z,53.17
2019-02-22T09:13:07.582Z,54.17
2019-02-22T09:17:15.938Z,49.53
2019-02-22T09:21:24.214Z,50.83
2019-02-22T09:25:32.506Z,60.97
2019-02-22T09:29:40.757Z,48.80
2019-02-22T09:33:49.042Z,51.53
2019-02-22T09:37:57.281Z,55.33
2019-02-22T09:42:05.550Z,56.77
2019-02-22T09:46:13.883Z,52.23
2019-02-22T09:50:22.151Z,44.77
2019-02-22T09:54:30.444Z,48.43
2019-02-22T09:58:38.796Z,48.70
2019-02-22T10:02:47.109Z,47.90
2019-02-22T10:06:55.362Z,47.37
2019-02-22T10:11:03.637Z,46.60
2019-02-22T10:15:11.901Z,50.25
2019-02-22T10:19:20.160Z,52.60
2019-02-22T10:23:29.333Z,42.50
2019-02-22T10:27:37.549Z,44.67
2019-02-22T10:31:45.831Z,49.37
2019-02-22T10:35:54.097Z,46.90
2019-02-22T10:40:02.345Z,49.43
2019-02-22T10:44:17.920Z,40.20
2019-02-22T10:48:18.921Z,41.77
2019-02-22T10:52:27.213Z,39.92
2019-02-22T10:56:35.498Z,40.07
2019-02-22T11:00:43.741Z,35.83
2019-02-22T11:04:52.223Z,31.57
2019-02-22T11:09:00.282Z,39.40
2019-02-22T11:13:08.557Z,32.00
2019-02-22T11:17:16.793Z,30.97
2019-02-22T11:21:25.064Z,39.30
2019-02-22T11:25:33.324Z,33.57
2019-02-22T11:29:41.573Z,29.87
2019-02-22T11:33:49.844Z,27.50
2019-02-22T11:37:58.082Z,29.07
2019-02-22T11:42:06.372Z,23.97
2019-02-22T11:46:14.628Z,24.03
2019-02-22T11:50:22.934Z,22.77
2019-02-22T11:54:31.204Z,19.47
2019-02-22T11:58:39.462Z,20.50
2019-02-22T12:02:47.781Z,17.07
2019-02-22T12:06:56.009Z,12.63
2019-02-22T12:11:04.289Z,7.10
2019-02-22T12:15:12.644Z,9.40
2019-02-22T12:19:20.982Z,6.00
2019-02-22T12:23:29.214Z,5.80
2019-02-22T12:27:37.498Z,7.90
2019-02-22T12:31:45.795Z,5.70
2019-02-22T12:35:54.056Z,6.93
2019-02-22T12:40:02.353Z,8.93
2019-02-22T12:44:10.570Z,6.87
2019-02-22T12:48:18.948Z,5.33
2019-02-22T12:52:27.189Z,8.03
2019-02-22T13:00:43.727Z,9.90
2019-02-22T13:04:51.953Z,12.63
2019-02-22T13:09:00.998Z,9.43
2019-02-22T13:13:09.234Z,12.27
2019-02-22T13:17:17.528Z,10.23
2019-02-22T13:21:25.810Z,10.73
2019-02-22T13:25:34.080Z,9.67
2019-02-22T13:29:42.413Z,10.27
2019-02-22T13:33:50.754Z,12.27
2019-02-22T13:37:59.037Z,15.90
2019-02-22T13:42:07.067Z,13.60
2019-02-22T13:46:15.310Z,19.00
2019-02-22T13:50:23.629Z,18.40
2019-02-22T13:54:31.918Z,18.17
2019-02-22T13:58:40.156Z,20.80
2019-02-22T14:02:48.414Z,19.10
2019-02-22T14:06:56.622Z,19.67
2019-02-22T14:11:04.869Z,20.27
2019-02-22T14:15:13.123Z,20.17
2019-02-22T14:19:21.391Z,19.27
2019-02-22T14:23:29.629Z,18.20
2019-02-22T14:27:37.900Z,17.47
2019-02-22T14:31:46.169Z,17.83
2019-02-22T14:35:54.419Z,18.07
2019-02-22T14:40:03.956Z,19.30
2019-02-22T14:44:11.005Z,18.03
2019-02-22T14:48:19.273Z,16.93
2019-02-22T14:52:27.549Z,17.70
2019-02-22T14:56:35.776Z,19.70
2019-02-22T15:00:44.050Z,18.10
2019-02-22T15:04:52.326Z,20.50
2019-02-22T15:09:00.618Z,19.17
2019-02-22T15:13:12.409Z,22.50
2019-02-22T15:17:21.442Z,37.60
2019-02-22T15:21:29.649Z,20.00
2019-02-22T15:25:37.918Z,22.90
2019-02-22T15:29:46.145Z,24.98
2019-02-22T15:33:54.420Z,23.67
2019-02-22T15:38:02.655Z,28.37
2019-02-22T15:42:10.914Z,22.47
2019-02-22T15:46:19.187Z,25.87
2019-02-22T15:50:27.488Z,26.87
2019-02-22T15:54:35.739Z,28.33
2019-02-22T15:58:44.021Z,23.93
2019-02-22T16:02:52.268Z,28.93
2019-02-22T16:07:00.549Z,29.40
2019-02-22T16:11:08.821Z,24.50
2019-02-22T16:15:17.056Z,22.70
2019-02-22T16:19:25.326Z,27.00
2019-02-22T16:23:33.581Z,25.57
2019-02-22T16:27:42.009Z,22.37
2019-02-22T16:31:50.313Z,23.30
2019-02-22T16:35:58.628Z,28.57
2019-02-22T16:40:08.528Z,32.97
2019-02-22T16:44:16.833Z,21.77
2019-02-22T16:48:25.104Z,25.37
2019-02-22T16:52:33.324Z,24.60
2019-02-22T16:56:41.580Z,28.73
2019-02-22T17:00:49.879Z,21.90
2019-02-22T17:04:58.106Z,23.10
2019-02-22T17:09:06.402Z,19.77
2019-02-22T17:13:14.640Z,24.40
2019-02-22T17:17:22.980Z,27.67
2019-02-22T17:21:31.232Z,21.17
2019-02-22T17:25:39.511Z,25.67
2019-02-22T17:29:47.754Z,26.70
2019-02-22T17:33:55.983Z,28.97
2019-02-22T17:38:04.221Z,27.37
2019-02-22T17:42:12.491Z,25.07
2019-02-22T17:46:20.779Z,34.90
2019-02-22T17:50:29.082Z,28.70
2019-02-22T17:54:37.403Z,27.13
2019-02-22T17:58:45.662Z,26.20
2019-02-22T18:02:53.897Z,29.03
2019-02-22T18:07:03.947Z,25.87
2019-02-22T18:11:12.220Z,24.43
2019-02-22T18:15:20.476Z,24.00
2019-02-22T18:19:28.717Z,28.20
2019-02-22T18:23:37.001Z,23.70
2019-02-22T18:27:45.317Z,24.67
2019-02-22T18:31:53.538Z,33.93
2019-02-22T18:36:01.791Z,27.90
2019-02-22T18:40:11.557Z,30.30
2019-02-22T18:44:19.818Z,34.47
2019-02-22T18:48:28.115Z,38.83
2019-02-22T18:52:36.374Z,34.53
2019-02-22T18:56:44.637Z,35.80
2019-02-22T19:00:52.874Z,30.77
2019-02-22T19:05:01.107Z,32.17
2019-02-22T19:09:09.348Z,30.60
2019-02-22T19:13:17.641Z,30.07
2019-02-22T19:17:30.441Z,27.40
2019-02-22T19:21:34.140Z,38.00
2019-02-22T19:25:42.424Z,38.03
2019-02-22T19:29:50.691Z,30.13
2019-02-22T19:33:59.066Z,37.57
2019-02-22T19:38:07.430Z,34.18
2019-02-22T19:42:15.662Z,84.90
2019-02-22T19:46:23.936Z,41.03
2019-02-22T19:50:41.072Z,33.07
2019-02-22T19:54:40.522Z,38.90
2019-02-22T19:58:48.764Z,31.20
2019-02-22T20:02:57.018Z,32.20
2019-02-22T20:07:05.326Z,30.20
2019-02-22T20:11:13.596Z,36.00
2019-02-22T20:15:21.854Z,32.03
2019-02-22T20:19:30.113Z,36.00
2019-02-22T20:23:38.443Z,33.63
2019-02-22T20:27:46.694Z,35.20
2019-02-22T20:31:55.017Z,35.00
2019-02-22T20:36:03.260Z,37.58
2019-02-22T20:40:11.263Z,37.53
2019-02-22T20:44:19.487Z,36.00
2019-02-22T20:48:27.778Z,43.03
2019-02-22T20:52:36.102Z,37.30
2019-02-22T20:56:44.374Z,47.33
2019-02-22T21:00:52.635Z,37.57
2019-02-22T21:05:00.915Z,37.07
2019-02-22T21:09:09.145Z,38.90
2019-02-22T21:13:17.369Z,36.80
2019-02-22T21:17:25.615Z,41.00
2019-02-22T21:21:33.904Z,41.87
2019-02-22T21:25:42.262Z,40.00
2019-02-22T21:29:50.511Z,38.87
2019-02-22T21:33:58.781Z,35.63
2019-02-22T21:38:07.004Z,41.60
2019-02-22T21:42:20.188Z,36.60
2019-02-22T21:46:23.552Z,42.90
2019-02-22T21:50:31.842Z,30.73
2019-02-22T21:54:40.058Z,34.93
2019-02-22T21:58:48.949Z,35.47
2019-02-22T22:02:56.538Z,31.50
2019-02-22T22:07:04.857Z,33.77
2019-02-22T22:11:13.201Z,33.70
2019-02-22T22:15:21.429Z,36.60
2019-02-22T22:19:29.659Z,41.07
2019-02-22T22:23:37.933Z,36.20
2019-02-22T22:27:46.188Z,29.57
2019-02-22T22:31:54.462Z,33.43
2019-02-22T22:36:02.743Z,33.80
2019-02-22T22:40:10.984Z,33.00
2019-02-22T22:44:19.291Z,33.87
2019-02-22T22:48:27.546Z,34.40
2019-02-22T22:52:35.835Z,34.10
2019-02-22T22:56:44.108Z,27.40
2019-02-22T23:01:01.028Z,32.37
2019-02-22T23:05:09.314Z,31.50
2019-02-22T23:09:19.336Z,30.35
2019-02-22T23:13:27.591Z,30.87
2019-02-22T23:17:35.842Z,30.03
2019-02-22T23:21:44.069Z,30.43
2019-02-22T23:25:52.350Z,27.10
2019-02-22T23:30:00.617Z,47.53
2019-02-22T23:34:08.845Z,33.30
2019-02-22T23:38:17.151Z,30.83
2019-02-22T23:42:25.469Z,30.63
2019-02-22T23:46:33.689Z,36.57
2019-02-22T23:50:41.954Z,33.00
2019-02-22T23:54:50.172Z,32.60
2019-02-22T23:58:58.443Z,36.20
